createdAt,value
2022-11-01T00:00:38.649Z,12.07
2022-11-01T00:03:24.188Z,11.68
2022-11-01T00:06:09.664Z,9.80
2022-11-01T00:08:55.138Z,9.88
2022-11-01T00:11:41.004Z,9.52
2022-11-01T00:14:26.394Z,12.45
2022-11-01T00:17:12.103Z,10.55
2022-11-01T00:19:57.821Z,11.05
2022-11-01T00:22:43.216Z,11.52
2022-11-01T00:25:29.082Z,11.07
2022-11-01T00:28:14.745Z,11.25
2022-11-01T00:31:00.646Z,15.60
2022-11-01T00:33:46.738Z,19.40
2022-11-01T00:36:36.426Z,17.23
2022-11-01T00:39:21.756Z,15.50
2022-11-01T00:42:07.684Z,14.57
2022-11-01T00:44:53.977Z,14.98
2022-11-01T00:47:39.454Z,11.35
2022-11-01T00:50:25.233Z,11.00
2022-11-01T00:53:12.356Z,12.73
2022-11-01T00:56:02.175Z,13.10
2022-11-01T00:58:47.594Z,13.18
2022-11-01T01:01:32.860Z,10.63
2022-11-01T01:04:18.383Z,9.93
2022-11-01T01:07:03.536Z,11.93
2022-11-01T01:09:49.002Z,15.00
2022-11-01T01:12:34.381Z,12.07
2022-11-01T01:15:19.807Z,10.95
2022-11-01T01:18:06.076Z,9.63
2022-11-01T01:20:51.522Z,9.20
2022-11-01T01:23:37.365Z,9.43
2022-11-01T01:26:22.528Z,9.85
2022-11-01T01:29:07.658Z,10.45
2022-11-01T01:31:53.119Z,9.13
2022-11-01T01:34:38.328Z,10.32
2022-11-01T01:37:23.650Z,11.10
2022-11-01T01:40:10.019Z,11.52
2022-11-01T01:42:55.488Z,11.90
2022-11-01T01:45:41.679Z,12.60
2022-11-01T01:48:27.755Z,13.13
2022-11-01T01:51:17.989Z,12.65
2022-11-01T01:54:03.399Z,11.65
2022-11-01T01:56:49.406Z,12.27
2022-11-01T01:59:36.946Z,10.63
2022-11-01T02:02:22.902Z,10.60
2022-11-01T02:05:17.123Z,10.07
2022-11-01T02:08:04.827Z,10.07
2022-11-01T02:10:50.440Z,10.05
2022-11-01T02:13:36.388Z,10.10
2022-11-01T02:16:40.630Z,9.75
2022-11-01T02:20:02.044Z,9.40
2022-11-01T02:22:59.717Z,10.07
2022-11-01T02:26:06.952Z,10.23
2022-11-01T02:29:03.208Z,10.07
2022-11-01T02:32:21.660Z,10.50
2022-11-01T02:35:16.222Z,8.85
2022-11-01T02:38:07.575Z,10.10
2022-11-01T02:41:16.134Z,9.65
2022-11-01T02:44:08.004Z,9.73
2022-11-01T02:47:01.588Z,10.90
2022-11-01T02:49:59.845Z,11.77
2022-11-01T02:52:46.217Z,10.45
2022-11-01T02:55:33.878Z,10.93
2022-11-01T02:58:23.725Z,10.77
2022-11-01T03:01:15.299Z,11.02
2022-11-01T03:04:02.255Z,11.57
2022-11-01T03:06:55.014Z,11.68
2022-11-01T03:09:41.598Z,11.43
2022-11-01T03:12:32.976Z,11.70
2022-11-01T03:15:26.619Z,11.32
2022-11-01T03:18:20.097Z,11.70
2022-11-01T03:21:16.159Z,10.68
2022-11-01T03:24:17.306Z,11.10
2022-11-01T03:27:27.428Z,10.45
2022-11-01T03:30:14.833Z,9.75
2022-11-01T03:33:00.792Z,10.88
2022-11-01T03:35:49.614Z,10.55
2022-11-01T03:38:39.718Z,9.85
2022-11-01T03:41:27.610Z,9.75
2022-11-01T03:44:14.061Z,10.68
2022-11-01T03:46:59.913Z,10.70
2022-11-01T03:49:45.037Z,10.07
2022-11-01T03:52:30.522Z,11.65
2022-11-01T03:55:18.274Z,10.50
2022-11-01T03:58:03.786Z,9.45
2022-11-01T04:00:50.833Z,9.73
2022-11-01T04:03:36.352Z,9.45
2022-11-01T04:06:21.907Z,9.63
2022-11-01T04:09:07.926Z,10.10
2022-11-01T04:11:53.454Z,9.63
2022-11-01T04:14:57.292Z,9.40
2022-11-01T04:18:01.326Z,9.27
2022-11-01T04:20:46.862Z,8.98
2022-11-01T04:23:33.189Z,9.15
2022-11-01T04:26:21.471Z,9.77
2022-11-01T04:29:06.735Z,10.30
2022-11-01T04:31:51.957Z,9.57
2022-11-01T04:34:43.496Z,10.05
2022-11-01T04:37:29.301Z,9.90
2022-11-01T04:40:15.617Z,9.25
2022-11-01T04:43:01.663Z,9.95
2022-11-01T04:45:54.337Z,7.97
2022-11-01T04:48:39.752Z,9.65
2022-11-01T04:51:25.065Z,9.25
2022-11-01T04:54:10.490Z,9.40
2022-11-01T04:56:55.740Z,9.60
2022-11-01T04:59:41.198Z,8.98
2022-11-01T05:02:26.679Z,8.80
2022-11-01T05:05:12.767Z,10.25
2022-11-01T05:08:07.463Z,9.63
2022-11-01T05:10:55.495Z,9.38
2022-11-01T05:13:41.217Z,9.23
2022-11-01T05:16:26.909Z,10.35
2022-11-01T05:19:12.337Z,10.52
2022-11-01T05:21:59.877Z,9.95
2022-11-01T05:24:45.316Z,9.82
2022-11-01T05:27:30.909Z,9.85
2022-11-01T05:30:16.734Z,9.48
2022-11-01T05:33:04.225Z,9.15
2022-11-01T05:35:49.689Z,10.52
2022-11-01T05:38:36.602Z,10.85
2022-11-01T05:41:22.201Z,10.93
2022-11-01T05:44:07.498Z,10.50
2022-11-01T05:46:53.155Z,9.98
2022-11-01T05:49:38.587Z,10.25
2022-11-01T05:52:24.120Z,10.88
2022-11-01T05:55:10.077Z,10.30
2022-11-01T05:57:59.219Z,10.73
2022-11-01T06:00:44.486Z,11.15
2022-11-01T06:03:31.462Z,10.88
2022-11-01T06:06:17.065Z,16.17
2022-11-01T06:09:03.349Z,16.20
2022-11-01T06:11:49.941Z,11.98
2022-11-01T06:14:38.847Z,11.05
2022-11-01T06:17:25.014Z,12.23
2022-11-01T06:20:11.813Z,13.57
2022-11-01T06:22:58.727Z,12.07
2022-11-01T06:25:44.087Z,11.07
2022-11-01T06:28:29.715Z,10.40
2022-11-01T06:31:14.988Z,10.68
2022-11-01T06:34:00.424Z,10.30
2022-11-01T06:36:46.010Z,9.40
2022-11-01T06:39:31.458Z,9.45
2022-11-01T06:42:17.066Z,10.05
2022-11-01T06:45:02.280Z,11.68
2022-11-01T06:47:48.862Z,12.55
2022-11-01T06:50:35.271Z,12.95
2022-11-01T06:53:21.899Z,11.85
2022-11-01T06:56:07.584Z,13.35
2022-11-01T06:58:53.436Z,12.85
2022-11-01T07:01:38.940Z,10.70
2022-11-01T07:04:27.066Z,10.20
2022-11-01T07:07:12.822Z,10.93
2022-11-01T07:09:58.103Z,10.98
2022-11-01T07:12:43.578Z,13.63
2022-11-01T07:15:29.849Z,11.82
2022-11-01T07:18:15.219Z,10.32
2022-11-01T07:21:04.994Z,11.38
2022-11-01T07:23:52.677Z,10.40
2022-11-01T07:26:38.324Z,10.40
2022-11-01T07:29:23.835Z,11.70
2022-11-01T07:32:09.258Z,11.30
2022-11-01T07:34:54.662Z,11.00
2022-11-01T07:37:41.356Z,10.20
2022-11-01T07:40:28.072Z,11.68
2022-11-01T07:43:14.409Z,12.20
2022-11-01T07:46:07.455Z,11.20
2022-11-01T07:48:53.172Z,12.20
2022-11-01T07:51:38.681Z,12.40
2022-11-01T07:54:28.368Z,11.60
2022-11-01T07:57:13.770Z,11.80
2022-11-01T07:59:59.475Z,12.05
2022-11-01T08:02:44.994Z,10.93
2022-11-01T08:05:30.606Z,10.88
2022-11-01T08:08:16.632Z,11.77
2022-11-01T08:11:03.147Z,11.55
2022-11-01T08:13:48.820Z,11.10
2022-11-01T08:16:34.270Z,11.50
2022-11-01T08:19:19.555Z,12.50
2022-11-01T08:22:05.431Z,11.75
2022-11-01T08:24:51.187Z,12.45
2022-11-01T08:27:36.533Z,12.63
2022-11-01T08:30:22.789Z,12.55
2022-11-01T08:33:08.741Z,13.02
2022-11-01T08:35:55.323Z,12.95
2022-11-01T08:38:41.837Z,13.50
2022-11-01T08:41:28.467Z,12.80
2022-11-01T08:44:14.015Z,13.35
2022-11-01T08:47:01.650Z,12.15
2022-11-01T08:49:47.260Z,12.65
2022-11-01T08:52:33.313Z,12.35
2022-11-01T08:55:18.948Z,11.02
2022-11-01T08:58:05.001Z,12.48
2022-11-01T09:00:51.133Z,10.88
2022-11-01T09:03:36.839Z,10.65
2022-11-01T09:06:22.328Z,12.18
2022-11-01T09:09:08.240Z,11.70
2022-11-01T09:11:53.869Z,11.75
2022-11-01T09:14:40.285Z,11.25
2022-11-01T09:17:25.920Z,11.20
2022-11-01T09:20:11.842Z,11.48
2022-11-01T09:22:57.766Z,10.52
2022-11-01T09:25:43.686Z,10.77
2022-11-01T09:28:33.699Z,11.93
2022-11-01T09:31:21.610Z,9.65
2022-11-01T09:34:07.805Z,10.30
2022-11-01T09:36:54.196Z,10.55
2022-11-01T09:39:39.600Z,9.77
2022-11-01T09:42:34.427Z,10.35
2022-11-01T09:45:23.467Z,9.35
2022-11-01T09:48:14.581Z,10.57
2022-11-01T09:51:04.913Z,9.23
2022-11-01T09:53:56.326Z,10.18
2022-11-01T09:56:51.306Z,9.95
2022-11-01T09:59:49.337Z,9.60
2022-11-01T10:02:50.148Z,11.75
2022-11-01T10:05:48.519Z,9.15
2022-11-01T10:08:49.385Z,8.35
2022-11-01T10:12:04.799Z,9.40
2022-11-01T10:15:02.377Z,8.82
2022-11-01T10:17:52.091Z,8.73
2022-11-01T10:20:40.619Z,8.98
2022-11-01T10:23:53.106Z,8.70
2022-11-01T10:26:44.405Z,8.35
2022-11-01T10:29:52.527Z,8.00
2022-11-01T10:32:49.815Z,8.63
2022-11-01T10:35:43.474Z,8.60
2022-11-01T10:38:41.902Z,8.02
2022-11-01T10:41:47.212Z,7.40
2022-11-01T10:44:38.571Z,7.55
2022-11-01T10:47:24.915Z,7.13
2022-11-01T10:50:14.486Z,7.57
2022-11-01T10:53:08.198Z,7.93
2022-11-01T10:55:58.951Z,6.95
2022-11-01T10:58:58.534Z,7.60
2022-11-01T11:01:45.200Z,7.65
2022-11-01T11:04:31.094Z,7.78
2022-11-01T11:07:21.480Z,7.32
2022-11-01T11:10:23.849Z,7.55
2022-11-01T11:13:10.687Z,8.00
2022-11-01T11:16:02.394Z,9.50
2022-11-01T11:19:01.426Z,7.68
2022-11-01T11:21:50.009Z,6.60
2022-11-01T11:24:38.761Z,7.80
2022-11-01T11:27:29.100Z,7.32
2022-11-01T11:30:27.668Z,7.55
2022-11-01T11:33:18.188Z,6.38
2022-11-01T11:36:04.477Z,7.32
2022-11-01T11:38:51.463Z,7.82
2022-11-01T11:41:38.666Z,6.22
2022-11-01T11:44:45.555Z,7.22
2022-11-01T11:47:36.313Z,7.65
2022-11-01T11:50:23.020Z,7.57
2022-11-01T11:53:20.231Z,8.02
2022-11-01T11:56:08.958Z,9.00
2022-11-01T11:58:56.479Z,7.68
2022-11-01T12:01:42.711Z,7.05
2022-11-01T12:04:45.596Z,6.30
2022-11-01T12:07:34.873Z,6.80
2022-11-01T12:10:45.544Z,6.22
2022-11-01T12:13:43.426Z,17.42
2022-11-01T12:19:27.546Z,8.98
2022-11-01T12:22:13.322Z,8.57
2022-11-01T12:25:05.610Z,7.63
2022-11-01T12:28:14.112Z,6.75
2022-11-01T12:31:06.381Z,6.93
2022-11-01T12:36:50.627Z,6.88
2022-11-01T12:40:02.481Z,7.35
2022-11-01T12:42:52.123Z,6.35
2022-11-01T12:45:57.871Z,6.50
2022-11-01T12:48:47.813Z,6.20
2022-11-01T12:51:41.803Z,7.22
2022-11-01T12:54:29.677Z,6.90
2022-11-01T12:57:18.262Z,7.35
2022-11-01T13:00:05.822Z,7.25
2022-11-01T13:02:54.173Z,6.40
2022-11-01T13:06:08.857Z,7.75
2022-11-01T13:09:18.473Z,7.05
2022-11-01T13:12:35.124Z,7.70
2022-11-01T13:15:29.718Z,6.55
2022-11-01T13:18:42.221Z,7.15
2022-11-01T13:21:34.393Z,7.07
2022-11-01T13:24:34.951Z,7.88
2022-11-01T13:27:29.129Z,6.90
2022-11-01T13:30:19.170Z,7.43
2022-11-01T13:33:30.958Z,7.65
2022-11-01T13:36:35.638Z,7.00
2022-11-01T13:39:40.571Z,6.65
2022-11-01T13:42:38.832Z,9.40
2022-11-01T13:45:43.545Z,9.52
2022-11-01T13:48:41.453Z,8.88
2022-11-01T13:51:30.156Z,9.05
2022-11-01T13:54:27.490Z,9.23
2022-11-01T13:57:19.120Z,8.70
2022-11-01T14:00:09.439Z,9.05
2022-11-01T14:02:59.263Z,9.40
2022-11-01T14:05:46.525Z,9.57
2022-11-01T14:08:37.389Z,10.95
2022-11-01T14:11:41.554Z,10.20
2022-11-01T14:14:30.264Z,9.18
2022-11-01T14:17:18.824Z,10.02
2022-11-01T14:20:06.530Z,8.60
2022-11-01T14:22:53.498Z,10.73
2022-11-01T14:25:39.085Z,10.43
2022-11-01T14:28:24.767Z,9.30
2022-11-01T14:31:15.727Z,9.18
2022-11-01T14:34:06.167Z,9.20
2022-11-01T14:36:55.222Z,10.65
2022-11-01T14:39:55.519Z,10.05
2022-11-01T14:42:44.754Z,11.93
2022-11-01T14:45:45.721Z,10.57
2022-11-01T14:48:40.042Z,11.65
2022-11-01T14:51:31.542Z,9.95
2022-11-01T14:55:24.953Z,11.13
2022-11-01T14:58:22.479Z,13.07
2022-11-01T15:01:13.731Z,14.52
2022-11-01T15:04:01.098Z,14.10
2022-11-01T15:06:47.324Z,14.40
2022-11-01T15:09:33.276Z,17.42
2022-11-01T15:12:19.268Z,20.20
2022-11-01T15:15:05.468Z,19.85
2022-11-01T15:18:06.649Z,19.23
2022-11-01T15:20:56.324Z,16.42
2022-11-01T15:23:45.633Z,14.50
2022-11-01T15:26:33.429Z,20.63
2022-11-01T15:29:22.201Z,21.05
2022-11-01T15:32:26.564Z,20.77
2022-11-01T15:35:26.191Z,16.85
2022-11-01T15:38:20.588Z,15.00
2022-11-01T15:41:26.039Z,15.18
2022-11-01T15:44:26.933Z,16.08
2022-11-01T15:47:18.925Z,16.52
2022-11-01T15:52:53.393Z,16.33
2022-11-01T15:55:44.907Z,17.73
2022-11-01T15:58:53.051Z,18.27
2022-11-01T16:01:39.804Z,18.02
2022-11-01T16:04:26.928Z,18.65
2022-11-01T16:07:17.007Z,20.65
2022-11-01T16:10:05.634Z,18.35
2022-11-01T16:12:53.023Z,19.30
2022-11-01T16:15:38.507Z,18.67
2022-11-01T16:18:25.748Z,18.10
2022-11-01T16:21:21.021Z,19.23
2022-11-01T16:24:15.720Z,20.88
2022-11-01T16:27:06.239Z,21.95
2022-11-01T16:29:53.077Z,24.02
2022-11-01T16:32:39.075Z,23.77
2022-11-01T16:35:34.409Z,23.67
2022-11-01T16:38:36.007Z,22.73
2022-11-01T16:41:24.270Z,20.08
2022-11-01T16:44:16.113Z,16.42
2022-11-01T16:47:02.021Z,18.00
2022-11-01T16:49:54.404Z,18.17
2022-11-01T16:52:40.411Z,27.55
2022-11-01T16:55:28.468Z,20.88
2022-11-01T16:58:20.411Z,30.17
2022-11-01T17:01:06.663Z,24.02
2022-11-01T17:03:53.209Z,21.33
2022-11-01T17:06:39.547Z,19.20
2022-11-01T17:09:25.381Z,21.77
2022-11-01T17:12:12.808Z,20.27
2022-11-01T17:14:59.494Z,31.98
2022-11-01T17:17:48.599Z,20.55
2022-11-01T17:20:36.708Z,70.10
2022-11-01T17:23:24.257Z,35.33
2022-11-01T17:26:15.842Z,30.13
2022-11-01T17:29:01.711Z,32.45
2022-11-01T17:31:47.050Z,26.63
2022-11-01T17:37:25.906Z,25.00
2022-11-01T17:40:20.567Z,22.77
2022-11-01T17:43:06.082Z,19.65
2022-11-01T17:45:52.012Z,16.80
2022-11-01T17:48:37.835Z,14.75
2022-11-01T17:51:23.207Z,14.80
2022-11-01T17:54:09.857Z,16.58
2022-11-01T17:56:55.615Z,13.32
2022-11-01T17:59:41.051Z,12.95
2022-11-01T18:02:26.937Z,13.98
2022-11-01T18:05:13.864Z,16.17
2022-11-01T18:08:03.054Z,14.80
2022-11-01T18:11:01.240Z,16.85
2022-11-01T18:14:10.393Z,15.45
2022-11-01T18:17:16.223Z,14.55
2022-11-01T18:20:30.219Z,14.50
2022-11-01T18:23:19.704Z,12.88
2022-11-01T18:26:10.811Z,14.02
2022-11-01T18:29:17.645Z,9.70
2022-11-01T18:32:16.939Z,14.20
2022-11-01T18:35:17.757Z,13.07
2022-11-01T18:38:13.507Z,9.63
2022-11-01T18:41:04.878Z,13.40
2022-11-01T18:43:53.852Z,12.10
2022-11-01T18:46:44.470Z,11.40
2022-11-01T18:49:30.917Z,10.50
2022-11-01T18:52:19.485Z,10.02
2022-11-01T18:55:13.893Z,10.82
2022-11-01T18:58:11.363Z,11.57
2022-11-01T19:01:13.439Z,11.48
2022-11-01T19:04:22.251Z,11.13
2022-11-01T19:07:20.197Z,8.65
2022-11-01T19:10:18.709Z,7.85
2022-11-01T19:13:12.814Z,7.10
2022-11-01T19:16:02.202Z,7.03
2022-11-01T19:18:50.837Z,6.78
2022-11-01T19:21:37.056Z,8.18
2022-11-01T19:24:34.993Z,8.07
2022-11-01T19:27:23.868Z,6.38
2022-11-01T19:30:37.337Z,9.85
2022-11-01T19:33:33.695Z,7.15
2022-11-01T19:36:23.667Z,6.82
2022-11-01T19:39:20.538Z,8.02
2022-11-01T19:42:12.897Z,7.68
2022-11-01T19:47:50.947Z,6.05
2022-11-01T19:50:41.646Z,7.18
2022-11-01T19:53:34.019Z,7.85
2022-11-01T19:56:21.222Z,9.02
2022-11-01T19:59:15.281Z,7.60
2022-11-01T20:02:05.040Z,6.90
2022-11-01T20:05:00.009Z,7.50
2022-11-01T20:07:45.666Z,9.80
2022-11-01T20:10:31.508Z,8.52
2022-11-01T20:13:18.458Z,7.45
2022-11-01T20:16:03.875Z,7.03
2022-11-01T20:18:49.876Z,6.30
2022-11-01T20:21:35.354Z,11.30
2022-11-01T20:24:20.739Z,10.88
2022-11-01T20:27:06.362Z,16.17
2022-11-01T20:29:52.229Z,10.00
2022-11-01T20:32:38.102Z,8.07
2022-11-01T20:35:23.752Z,8.27
2022-11-01T20:41:08.964Z,6.85
2022-11-01T20:43:54.727Z,6.70
2022-11-01T20:46:40.233Z,6.95
2022-11-01T20:49:25.982Z,6.75
2022-11-01T20:52:38.110Z,6.47
2022-11-01T20:55:21.019Z,7.10
2022-11-01T20:58:07.695Z,6.50
2022-11-01T21:00:54.540Z,6.28
2022-11-01T21:03:40.252Z,6.25
2022-11-01T21:06:31.990Z,5.55
2022-11-01T21:09:30.236Z,7.18
2022-11-01T21:12:28.140Z,5.55
2022-11-01T21:15:26.277Z,5.97
2022-11-01T21:18:12.365Z,7.13
2022-11-01T21:20:59.722Z,6.88
2022-11-01T21:23:46.591Z,8.20
2022-11-01T21:26:35.997Z,6.53
2022-11-01T21:29:27.667Z,6.85
2022-11-01T21:32:34.610Z,5.70
2022-11-01T21:35:20.004Z,7.07
2022-11-01T21:38:29.103Z,6.55
2022-11-01T21:41:21.141Z,7.40
2022-11-01T21:47:14.052Z,7.50
2022-11-01T21:49:59.587Z,8.38
2022-11-01T21:52:45.838Z,8.00
2022-11-01T21:55:31.494Z,8.02
2022-11-01T21:58:16.720Z,7.55
2022-11-01T22:01:02.296Z,8.32
2022-11-01T22:03:47.971Z,10.15
2022-11-01T22:06:33.387Z,10.10
2022-11-01T22:09:19.744Z,8.57
2022-11-01T22:12:06.818Z,7.00
2022-11-01T22:14:52.559Z,7.10
2022-11-01T22:17:38.197Z,7.93
2022-11-01T22:20:23.614Z,7.20
2022-11-01T22:23:09.536Z,7.00
2022-11-01T22:25:54.878Z,6.47
2022-11-01T22:28:40.314Z,6.53
2022-11-01T22:31:26.145Z,6.88
2022-11-01T22:34:11.819Z,7.03
2022-11-01T22:36:57.559Z,7.18
2022-11-01T22:39:43.843Z,7.20
2022-11-01T22:42:31.364Z,6.20
2022-11-01T22:45:18.595Z,6.43
2022-11-01T22:48:14.495Z,6.68
2022-11-01T22:51:02.711Z,6.70
2022-11-01T22:53:49.201Z,6.82
2022-11-01T22:56:34.676Z,6.43
2022-11-01T22:59:20.167Z,6.75
2022-11-01T23:02:37.744Z,6.88
2022-11-01T23:05:25.328Z,7.70
2022-11-01T23:08:25.978Z,7.63
2022-11-01T23:11:44.805Z,7.22
2022-11-01T23:14:37.762Z,7.00
2022-11-01T23:17:31.399Z,6.97
2022-11-01T23:20:17.353Z,6.72
2022-11-01T23:23:04.684Z,7.75
2022-11-01T23:25:52.328Z,7.20
2022-11-01T23:28:42.066Z,7.65
2022-11-01T23:31:29.073Z,7.03
2022-11-01T23:34:14.598Z,7.35
2022-11-01T23:37:00.088Z,7.55
2022-11-01T23:39:45.944Z,7.05
2022-11-01T23:42:31.898Z,7.18
2022-11-01T23:45:27.971Z,7.32
2022-11-01T23:48:14.149Z,7.45
2022-11-01T23:50:59.719Z,7.05
2022-11-01T23:53:48.762Z,8.60
2022-11-01T23:56:34.149Z,7.22
2022-11-01T23:59:19.625Z,7.32
